Time,TemperatureF,DewpointF,PressureIn,WindDirection,WindDirectionDegrees,WindSpeedMPH,WindSpeedGustMPH,Humidity,HourlyPrecipIn,Conditions,Clouds,dailyrainin,SoftwareType,DateUTC
2013-01-10 00:00:00,51.0,33.5,30.37,West,266,1.0,7.0,51,0.00,,---,0.00,VWS V14.01,2013-01-10 05:00:00,
2013-01-10 00:01:00,51.0,33.5,30.37,West,266,2.0,7.0,51,0.00,,---,0.00,VWS V14.01,2013-01-10 05:01:00,
2013-01-10 00:06:00,50.9,33.4,30.37,WNW,287,1.0,3.0,51,0.00,,---,0.00,VWS V14.01,2013-01-10 05:06:00,
2013-01-10 00:11:00,50.8,33.3,30.37,West,276,1.0,3.0,51,0.00,,---,0.00,VWS V14.01,2013-01-10 05:11:00,
2013-01-10 00:16:00,50.7,33.2,30.37,West,269,2.0,4.0,51,0.00,,---,0.00,VWS V14.01,2013-01-10 05:16:00,
2013-01-10 00:21:00,50.7,33.2,30.37,West,277,2.0,6.0,51,0.00,,---,0.00,VWS V14.01,2013-01-10 05:21:00,
2013-01-10 00:26:00,50.6,33.2,30.37,West,269,1.0,6.0,51,0.00,,---,0.00,VWS V14.01,2013-01-10 05:26:00,
2013-01-10 00:30:00,50.6,33.6,30.37,WSW,256,2.0,8.0,52,0.00,,---,0.00,VWS V14.01,2013-01-10 05:30:00,
2013-01-10 00:31:00,50.6,33.6,30.37,WSW,256,1.0,2.0,52,0.00,,---,0.00,VWS V14.01,2013-01-10 05:31:00,
2013-01-10 00:36:00,50.5,33.5,30.38,West,274,1.0,4.0,52,0.00,,---,0.00,VWS V14.01,2013-01-10 05:36:00,
2013-01-10 00:41:00,50.5,33.5,30.38,WNW,290,1.0,4.0,52,0.00,,---,0.00,VWS V14.01,2013-01-10 05:41:00,
2013-01-10 00:46:00,50.4,33.5,30.38,West,274,1.0,5.0,52,0.00,,---,0.00,VWS V14.01,2013-01-10 05:46:00,
2013-01-10 00:51:00,50.3,33.4,30.38,West,274,1.0,5.0,52,0.00,,---,0.00,VWS V14.01,2013-01-10 05:51:00,
2013-01-10 00:56:00,50.2,33.3,30.38,WNW,300,3.0,5.0,52,0.00,,---,0.00,VWS V14.01,2013-01-10 05:56:00,
2013-01-10 01:00:00,50.1,33.2,30.39,WNW,283,0.0,5.0,52,0.00,,---,0.00,VWS V14.01,2013-01-10 06:00:00,
2013-01-10 01:01:00,50.1,33.2,30.39,West,277,3.0,3.0,52,0.00,,---,0.00,VWS V14.01,2013-01-10 06:01:00,
2013-01-10 01:06:00,50.1,33.2,30.38,WSW,247,2.0,5.0,52,0.00,,---,0.00,VWS V14.01,2013-01-10 06:06:00,
2013-01-10 01:11:00,50.0,33.6,30.39,WNW,295,2.0,5.0,53,0.00,,---,0.00,VWS V14.01,2013-01-10 06:11:00,
2013-01-10 01:16:00,50.0,33.6,30.39,West,281,0.0,5.0,53,0.00,,---,0.00,VWS V14.01,2013-01-10 06:16:00,
2013-01-10 01:21:00,49.8,33.4,30.39,West,272,2.0,5.0,53,0.00,,---,0.00,VWS V14.01,2013-01-10 06:21:00,
2013-01-10 01:26:00,49.7,33.3,30.39,West,281,2.0,5.0,53,0.00,,---,0.00,VWS V14.01,2013-01-10 06:26:00,
2013-01-10 01:30:00,49.6,33.2,30.40,West,277,0.0,5.0,53,0.00,,---,0.00,VWS V14.01,2013-01-10 06:30:00,
2013-01-10 01:31:00,49.6,33.2,30.40,West,277,1.0,1.0,53,0.00,,---,0.00,VWS V14.01,2013-01-10 06:31:00,
2013-01-10 01:36:00,49.5,33.1,30.40,West,281,2.0,4.0,53,0.00,,---,0.00,VWS V14.01,2013-01-10 06:36:00,
2013-01-10 01:41:00,49.4,33.5,30.40,West,274,2.0,4.0,54,0.00,,---,0.00,VWS V14.01,2013-01-10 06:41:00,
2013-01-10 01:46:00,49.3,33.4,30.40,West,278,1.0,4.0,54,0.00,,---,0.00,VWS V14.01,2013-01-10 06:46:00,
2013-01-10 01:51:00,49.1,33.2,30.40,West,278,2.0,4.0,54,0.00,,---,0.00,VWS V14.01,2013-01-10 06:51:00,
2013-01-10 01:56:00,49.1,33.2,30.40,West,276,1.0,4.0,54,0.00,,---,0.00,VWS V14.01,2013-01-10 06:56:00,
2013-01-10 02:00:00,49.0,33.5,30.40,West,276,0.0,0.0,55,0.00,,---,0.00,VWS V14.01,2013-01-10 07:00:00,
2013-01-10 02:05:00,48.8,33.4,30.41,West,280,0.0,3.0,55,0.00,,---,0.00,VWS V14.01,2013-01-10 07:05:00,
2013-01-10 02:10:00,48.6,33.2,30.41,West,274,0.0,3.0,55,0.00,,---,0.00,VWS V14.01,2013-01-10 07:10:00,
2013-01-10 02:15:00,48.5,33.1,30.41,West,270,0.0,3.0,55,0.00,,---,0.00,VWS V14.01,2013-01-10 07:15:00,
2013-01-10 02:20:00,48.3,33.3,30.42,West,270,0.0,3.0,56,0.00,,---,0.00,VWS V14.01,2013-01-10 07:20:00,
2013-01-10 02:25:00,48.1,33.2,30.42,West,270,0.0,3.0,56,0.00,,---,0.00,VWS V14.01,2013-01-10 07:25:00,
2013-01-10 02:30:00,48.0,33.1,30.42,West,270,0.0,3.0,56,0.00,,---,0.00,VWS V14.01,2013-01-10 07:30:00,
2013-01-10 02:35:00,47.8,32.9,30.42,West,270,1.0,2.0,56,0.00,,---,0.00,VWS V14.01,2013-01-10 07:35:00,
2013-01-10 02:40:00,47.7,33.2,30.42,West,270,0.0,2.0,57,0.00,,---,0.00,VWS V14.01,2013-01-10 07:40:00,
2013-01-10 02:45:00,47.6,33.1,30.42,West,270,0.0,2.0,57,0.00,,---,0.00,VWS V14.01,2013-01-10 07:45:00,
2013-01-10 02:50:00,47.4,33.0,30.42,West,270,1.0,2.0,57,0.00,,---,0.00,VWS V14.01,2013-01-10 07:50:00,
2013-01-10 02:55:00,47.2,33.2,30.43,West,270,1.0,2.0,58,0.00,,---,0.00,VWS V14.01,2013-01-10 07:55:00,
2013-01-10 03:00:00,47.0,33.0,30.43,West,266,0.0,2.0,58,0.00,,---,0.00,VWS V14.01,2013-01-10 08:00:00,
2013-01-10 03:05:00,46.8,32.8,30.43,West,266,1.0,2.0,58,0.00,,---,0.00,VWS V14.01,2013-01-10 08:05:00,
2013-01-10 03:10:00,46.5,33.0,30.43,West,266,0.0,2.0,59,0.00,,---,0.00,VWS V14.01,2013-01-10 08:10:00,
2013-01-10 03:15:00,46.3,32.8,30.43,WSW,246,0.0,2.0,59,0.00,,---,0.00,VWS V14.01,2013-01-10 08:15:00,
2013-01-10 03:20:00,46.1,32.6,30.43,WSW,246,0.0,2.0,59,0.00,,---,0.00,VWS V14.01,2013-01-10 08:20:00,
2013-01-10 03:30:00,45.7,31.8,30.44,West,270,0.0,2.0,58,0.00,,---,0.00,VWS V14.01,2013-01-10 08:30:00,
2013-01-10 04:00:00,44.8,30.9,30.44,WSW,248,0.0,2.0,58,0.00,,---,0.00,VWS V14.01,2013-01-10 09:00:00,
2013-01-10 04:30:00,44.1,29.4,30.44,WSW,248,0.0,2.0,56,0.00,,---,0.00,VWS V14.01,2013-01-10 09:30:00,
2013-01-10 05:00:00,44.1,29.4,30.44,WSW,248,0.0,1.0,56,0.00,,---,0.00,VWS V14.01,2013-01-10 10:00:00,
2013-01-10 05:30:00,43.6,29.0,30.45,WSW,248,0.0,2.0,56,0.00,,---,0.00,VWS V14.01,2013-01-10 10:30:00,
2013-01-10 06:00:00,42.7,28.5,30.47,WSW,248,0.0,1.0,57,0.00,,---,0.00,VWS V14.01,2013-01-10 11:00:00,
2013-01-10 06:30:00,41.1,28.7,30.48,WSW,248,0.0,1.0,61,0.00,,---,0.00,VWS V14.01,2013-01-10 11:30:00,
2013-01-10 07:00:00,39.3,28.9,30.50,WSW,248,0.0,1.0,66,0.00,,---,0.00,VWS V14.01,2013-01-10 12:00:00,
2013-01-10 07:30:00,37.6,28.7,30.52,WSW,248,0.0,1.0,70,0.00,,---,0.00,VWS V14.01,2013-01-10 12:30:00,
2013-01-10 08:00:00,36.4,28.6,30.55,WSW,248,0.0,0.0,73,0.00,,---,0.00,VWS V14.01,2013-01-10 13:00:00,
2013-01-10 08:30:00,35.9,29.1,30.57,WSW,248,0.0,0.0,76,0.00,,---,0.00,VWS V14.01,2013-01-10 13:30:00,
2013-01-10 09:00:00,38.3,30.4,30.58,West,270,0.0,3.0,73,0.00,,---,0.00,VWS V14.01,2013-01-10 14:00:00,
2013-01-10 09:30:00,43.3,31.2,30.58,NNW,338,1.0,4.0,62,0.00,,---,0.00,VWS V14.01,2013-01-10 14:30:00,
2013-01-10 10:00:00,46.0,31.6,30.59,NNW,338,2.0,4.0,57,0.00,,---,0.00,VWS V14.01,2013-01-10 15:00:00,
2013-01-10 10:30:00,47.4,30.7,30.59,NNW,338,2.0,5.0,52,0.00,,---,0.00,VWS V14.01,2013-01-10 15:30:00,
2013-01-10 11:00:00,48.2,30.9,30.58,NNW,338,1.0,5.0,51,0.00,,---,0.00,VWS V14.01,2013-01-10 16:00:00,
2013-01-10 11:30:00,48.7,30.9,30.57,NW,315,2.0,5.0,50,0.00,,---,0.00,VWS V14.01,2013-01-10 16:30:00,
2013-01-10 12:00:00,49.4,31.1,30.55,North,0,2.0,6.0,49,0.00,,---,0.00,VWS V14.01,2013-01-10 17:00:00,
2013-01-10 12:30:00,50.1,30.1,30.54,NNW,338,1.0,6.0,46,0.00,,---,0.00,VWS V14.01,2013-01-10 17:30:00,
2013-01-10 13:00:00,50.6,30.6,30.52,NNW,338,1.0,5.0,46,0.00,,---,0.00,VWS V14.01,2013-01-10 18:00:00,
2013-01-10 13:30:00,50.8,30.2,30.52,NNW,338,1.0,4.0,45,0.00,,---,0.00,VWS V14.01,2013-01-10 18:30:00,
2013-01-10 14:00:00,51.5,30.3,30.52,NNW,338,1.0,3.0,44,0.00,,---,0.00,VWS V14.01,2013-01-10 19:00:00,
2013-01-10 14:30:00,52.2,30.4,30.51,North,0,1.0,4.0,43,0.00,,---,0.00,VWS V14.01,2013-01-10 19:30:00,
2013-01-10 15:00:00,52.7,29.7,30.50,NNE,22,1.0,4.0,41,0.00,,---,0.00,VWS V14.01,2013-01-10 20:00:00,
2013-01-10 15:30:00,52.7,29.7,30.51,NNW,338,1.0,5.0,41,0.00,,---,0.00,VWS V14.01,2013-01-10 20:30:00,
2013-01-10 16:00:00,52.2,30.4,30.51,NW,315,0.0,2.0,43,0.00,,---,0.00,VWS V14.01,2013-01-10 21:00:00,
2013-01-10 16:30:00,51.7,29.9,30.51,NW,315,0.0,1.0,43,0.00,,---,0.00,VWS V14.01,2013-01-10 21:30:00,
2013-01-10 17:00:00,50.8,30.2,30.50,NW,315,0.0,0.0,45,0.00,,---,0.00,VWS V14.01,2013-01-10 22:00:00,
2013-01-10 17:30:00,49.1,31.3,30.51,East,90,0.0,2.0,50,0.00,,---,0.00,VWS V14.01,2013-01-10 22:30:00,
2013-01-10 18:00:00,47.3,31.5,30.50,ESE,112,1.0,3.0,54,0.00,,---,0.00,VWS V14.01,2013-01-10 23:00:00,
2013-01-10 18:30:00,46.5,31.2,30.51,ESE,112,0.0,2.0,55,0.00,,---,0.00,VWS V14.01,2013-01-10 23:30:00,
2013-01-10 19:00:00,45.8,31.5,30.51,ESE,112,0.0,0.0,57,0.00,,---,0.00,VWS V14.01,2013-01-11 00:00:00,
2013-01-10 19:30:00,45.1,31.6,30.52,ESE,112,0.0,0.0,59,0.00,,---,0.00,VWS V14.01,2013-01-11 00:30:00,
2013-01-10 20:00:00,44.4,32.6,30.52,ESE,112,0.0,1.0,63,0.00,,---,0.00,VWS V14.01,2013-01-11 01:00:00,
2013-01-10 20:30:00,43.8,32.4,30.52,ESE,112,0.0,0.0,64,0.00,,---,0.00,VWS V14.01,2013-01-11 01:30:00,
2013-01-10 21:00:00,42.8,32.2,30.52,ESE,112,0.0,2.0,66,0.00,,---,0.00,VWS V14.01,2013-01-11 02:00:00,
2013-01-10 21:30:00,41.7,31.6,30.52,ESE,112,0.0,2.0,67,0.00,,---,0.00,VWS V14.01,2013-01-11 02:30:00,
2013-01-10 22:00:00,41.5,31.7,30.52,ESE,112,0.0,1.0,68,0.00,,---,0.00,VWS V14.01,2013-01-11 03:00:00,
2013-01-10 22:30:00,41.1,31.7,30.52,ESE,112,0.0,0.0,69,0.00,,---,0.00,VWS V14.01,2013-01-11 03:30:00,
2013-01-10 23:00:00,40.0,31.7,30.51,ESE,112,0.0,1.0,72,0.00,,---,0.00,VWS V14.01,2013-01-11 04:00:00,
2013-01-10 23:30:00,39.3,31.7,30.51,ESE,112,0.0,1.0,74,0.00,,---,0.00,VWS V14.01,2013-01-11 04:30:00,